createdAt,value
2019-05-26T00:00:12.419Z,63.41
2019-05-26T00:05:09.666Z,62.83
2019-05-26T00:10:07.641Z,62.56
2019-05-26T00:15:05.724Z,63.10
2019-05-26T00:20:06.227Z,62.92
2019-05-26T00:25:05.786Z,63.78
2019-05-26T00:30:08.154Z,63.17
2019-05-26T00:35:06.909Z,63.02
2019-05-26T00:40:06.244Z,62.97
2019-05-26T00:45:06.069Z,63.77
2019-05-26T00:50:05.865Z,62.91
2019-05-26T00:55:05.589Z,63.58
2019-05-26T01:00:07.470Z,63.19
2019-05-26T01:05:06.939Z,63.20
2019-05-26T01:10:08.790Z,64.22
2019-05-26T01:15:06.486Z,65.11
2019-05-26T01:20:05.274Z,64.77
2019-05-26T01:25:05.400Z,65.63
2019-05-26T01:30:06.865Z,64.77
2019-05-26T01:35:05.742Z,63.83
2019-05-26T01:40:07.535Z,64.13
2019-05-26T01:45:07.940Z,63.30
2019-05-26T01:50:08.291Z,63.33
2019-05-26T01:55:07.084Z,64.08
2019-05-26T02:00:05.717Z,63.49
2019-05-26T02:05:04.662Z,62.06
2019-05-26T02:10:02.291Z,62.62
2019-05-26T02:14:59.379Z,62.95
2019-05-26T02:19:56.371Z,62.71
2019-05-26T02:24:55.230Z,63.89
2019-05-26T02:29:52.773Z,65.11
2019-05-26T02:34:49.753Z,65.44
2019-05-26T02:39:48.667Z,64.48
2019-05-26T02:44:47.641Z,64.68
2019-05-26T02:49:45.022Z,63.53
2019-05-26T02:54:42.028Z,63.74
2019-05-26T02:59:39.022Z,63.48
2019-05-26T03:04:37.832Z,62.60
2019-05-26T03:09:38.417Z,62.49
2019-05-26T03:14:39.492Z,64.06
2019-05-26T03:19:41.708Z,63.36
2019-05-26T03:24:42.168Z,62.65
2019-05-26T03:29:39.680Z,63.52
2019-05-26T03:34:37.615Z,63.47
2019-05-26T03:39:44.573Z,63.53
2019-05-26T03:44:33.504Z,63.99
2019-05-26T03:49:30.694Z,63.71
2019-05-26T03:54:28.038Z,63.70
2019-05-26T03:59:25.191Z,63.50
2019-05-26T04:04:22.180Z,65.03
2019-05-26T04:09:19.165Z,65.18
2019-05-26T04:14:16.301Z,65.10
2019-05-26T04:19:15.345Z,64.70
2019-05-26T04:24:14.285Z,64.84
2019-05-26T04:29:11.744Z,64.72
2019-05-26T04:34:08.870Z,63.90
2019-05-26T04:39:08.799Z,64.49
2019-05-26T04:44:05.797Z,63.52
2019-05-26T04:49:07.251Z,63.58
2019-05-26T04:54:04.315Z,60.82
2019-05-26T04:59:01.410Z,62.33
2019-05-26T05:04:00.533Z,62.08
2019-05-26T05:08:57.726Z,60.75
2019-05-26T05:13:57.653Z,58.98
2019-05-26T05:18:56.638Z,59.48
2019-05-26T05:23:53.856Z,56.69
2019-05-26T05:28:51.580Z,55.69
2019-05-26T05:33:50.448Z,55.68
2019-05-26T05:38:48.833Z,54.35
2019-05-26T05:43:46.857Z,57.23
2019-05-26T05:48:44.031Z,56.46
2019-05-26T05:53:42.597Z,49.75
2019-05-26T05:58:41.851Z,50.67
2019-05-26T06:03:38.932Z,50.94
2019-05-26T06:08:38.441Z,50.39
2019-05-26T06:13:35.543Z,52.00
2019-05-26T06:18:32.681Z,53.51
2019-05-26T06:23:38.161Z,47.16
2019-05-26T06:28:32.631Z,49.12
2019-05-26T06:33:29.692Z,46.72
2019-05-26T06:38:28.820Z,48.94
2019-05-26T06:43:26.015Z,46.34
2019-05-26T06:48:26.937Z,47.42
2019-05-26T06:53:26.037Z,47.30
2019-05-26T06:58:23.216Z,43.79
2019-05-26T07:03:22.176Z,42.45
2019-05-26T07:08:19.347Z,41.33
2019-05-26T07:13:16.469Z,41.71
2019-05-26T07:18:13.949Z,37.67
2019-05-26T07:23:13.167Z,38.77
2019-05-26T07:28:10.815Z,37.11
2019-05-26T07:33:07.926Z,39.78
2019-05-26T07:38:05.011Z,36.09
2019-05-26T07:43:02.230Z,30.73
2019-05-26T07:47:59.921Z,33.46
2019-05-26T07:52:57.342Z,35.62
2019-05-26T07:57:54.405Z,32.87
2019-05-26T08:02:51.756Z,33.77
2019-05-26T08:07:50.695Z,31.66
2019-05-26T08:12:47.868Z,31.94
2019-05-26T08:17:44.944Z,30.86
2019-05-26T08:22:42.051Z,33.18
2019-05-26T08:27:39.273Z,32.41
2019-05-26T08:32:36.300Z,33.38
2019-05-26T08:37:33.317Z,35.22
2019-05-26T08:42:43.710Z,36.07
2019-05-26T08:47:29.772Z,32.73
2019-05-26T08:52:26.909Z,33.07
2019-05-26T08:57:24.222Z,34.92
2019-05-26T09:02:21.409Z,32.50
2019-05-26T09:07:20.352Z,29.64
2019-05-26T09:12:17.362Z,28.09
2019-05-26T09:17:14.449Z,32.70
2019-05-26T09:22:11.569Z,30.64
2019-05-26T09:27:08.765Z,27.89
2019-05-26T09:32:06.020Z,29.39
2019-05-26T09:37:04.979Z,30.62
2019-05-26T09:42:03.958Z,33.34
2019-05-26T09:47:01.184Z,33.14
2019-05-26T09:51:58.235Z,29.26
2019-05-26T09:56:55.263Z,31.65
2019-05-26T10:01:52.439Z,29.71
2019-05-26T10:06:51.471Z,25.22
2019-05-26T10:11:48.511Z,27.24
2019-05-26T10:16:47.599Z,28.15
2019-05-26T10:21:44.802Z,27.76
2019-05-26T10:26:41.910Z,28.24
2019-05-26T10:31:38.928Z,26.93
2019-05-26T10:36:36.020Z,29.10
2019-05-26T10:41:33.230Z,29.08
2019-05-26T10:46:32.175Z,28.35
2019-05-26T10:51:29.232Z,29.67
2019-05-26T10:56:26.388Z,29.12
2019-05-26T11:01:23.416Z,29.84
2019-05-26T11:06:22.074Z,30.63
2019-05-26T11:11:19.093Z,30.41
2019-05-26T11:16:16.185Z,30.68
2019-05-26T11:21:13.233Z,31.18
2019-05-26T11:26:12.200Z,30.97
2019-05-26T11:31:09.241Z,30.20
2019-05-26T11:36:06.343Z,30.11
2019-05-26T11:41:03.432Z,28.35
2019-05-26T11:46:00.605Z,28.28
2019-05-26T11:50:57.705Z,30.15
2019-05-26T11:55:54.731Z,31.72
2019-05-26T12:00:51.795Z,27.56
2019-05-26T12:05:49.470Z,31.60
2019-05-26T12:10:49.619Z,29.57
2019-05-26T12:15:46.789Z,30.82
2019-05-26T12:20:45.753Z,29.09
2019-05-26T12:25:42.920Z,28.30
2019-05-26T12:30:41.945Z,30.77
2019-05-26T12:35:43.640Z,27.85
2019-05-26T12:40:43.009Z,28.93
2019-05-26T12:45:40.203Z,32.03
2019-05-26T12:50:37.494Z,27.53
2019-05-26T12:55:34.635Z,28.61
2019-05-26T13:00:47.683Z,28.86
2019-05-26T13:05:30.736Z,30.09
2019-05-26T13:10:27.761Z,31.21
2019-05-26T13:15:25.520Z,33.14
2019-05-26T13:20:22.837Z,32.75
2019-05-26T13:25:20.218Z,34.32
2019-05-26T13:30:21.025Z,33.20
2019-05-26T13:35:19.533Z,32.77
2019-05-26T13:40:16.793Z,33.78
2019-05-26T13:45:22.346Z,34.40
2019-05-26T13:50:16.942Z,36.43
2019-05-26T13:55:16.268Z,37.11
2019-05-26T14:00:15.616Z,40.83
2019-05-26T14:05:14.755Z,42.85
2019-05-26T14:10:12.137Z,44.74
2019-05-26T14:15:11.342Z,46.48
2019-05-26T14:20:12.699Z,48.98
2019-05-26T14:25:09.967Z,49.24
2019-05-26T14:30:07.809Z,48.96
2019-05-26T14:35:06.433Z,49.90
2019-05-26T14:40:07.112Z,44.94
2019-05-26T14:45:07.633Z,43.06
2019-05-26T14:50:08.773Z,41.72
2019-05-26T14:55:06.648Z,39.93
2019-05-26T15:00:10.993Z,40.62
2019-05-26T15:05:08.827Z,37.99
2019-05-26T15:10:08.543Z,39.30
2019-05-26T15:15:06.848Z,38.41
2019-05-26T15:20:06.203Z,41.54
2019-05-26T15:25:05.563Z,40.58
2019-05-26T15:30:09.905Z,39.23
2019-05-26T15:35:08.057Z,40.07
2019-05-26T15:40:11.763Z,38.23
2019-05-26T15:45:09.383Z,37.68
2019-05-26T15:50:08.300Z,38.19
2019-05-26T15:55:05.581Z,38.81
2019-05-26T16:00:06.139Z,40.51
2019-05-26T16:05:05.618Z,39.25
2019-05-26T16:10:05.745Z,43.80
2019-05-26T16:15:05.799Z,45.04
2019-05-26T16:20:06.762Z,45.49
2019-05-26T16:25:05.026Z,46.84
2019-05-26T16:30:06.658Z,48.69
2019-05-26T16:35:04.167Z,49.50
2019-05-26T16:40:01.167Z,48.32
2019-05-26T16:44:58.213Z,47.84
2019-05-26T16:49:55.445Z,49.56
2019-05-26T16:54:52.610Z,50.38
2019-05-26T16:59:49.847Z,50.19
2019-05-26T17:04:47.025Z,49.43
2019-05-26T17:09:44.559Z,50.39
2019-05-26T17:14:43.011Z,50.81
2019-05-26T17:19:41.925Z,53.65
2019-05-26T17:24:38.872Z,54.16
2019-05-26T17:29:36.291Z,55.25
2019-05-26T17:34:34.585Z,56.04
2019-05-26T17:39:31.644Z,55.85
2019-05-26T17:44:28.707Z,57.23
2019-05-26T17:49:25.783Z,56.45
2019-05-26T17:54:22.769Z,57.16
2019-05-26T17:59:19.797Z,57.51
2019-05-26T18:04:16.875Z,57.53
2019-05-26T18:09:15.658Z,57.47
2019-05-26T18:14:12.722Z,57.57
2019-05-26T18:19:11.186Z,58.48
2019-05-26T18:24:08.327Z,58.55
2019-05-26T18:29:08.595Z,59.46
2019-05-26T18:34:05.790Z,56.57
2019-05-26T18:39:08.000Z,59.06
2019-05-26T18:44:04.989Z,59.51
2019-05-26T18:49:04.509Z,59.45
2019-05-26T18:54:03.621Z,59.57
2019-05-26T18:59:00.698Z,60.30
2019-05-26T19:03:59.465Z,61.20
2019-05-26T19:08:56.438Z,59.50
2019-05-26T19:13:53.113Z,60.94
2019-05-26T19:18:50.257Z,61.53
2019-05-26T19:23:47.314Z,61.50
2019-05-26T19:28:44.291Z,61.44
2019-05-26T19:33:41.225Z,61.27
2019-05-26T19:38:38.399Z,60.64
2019-05-26T19:43:36.972Z,61.19
2019-05-26T19:48:37.410Z,61.73
2019-05-26T19:53:35.039Z,61.53
2019-05-26T19:58:32.722Z,62.78
2019-05-26T20:03:29.470Z,62.61
2019-05-26T20:08:26.461Z,61.70
2019-05-26T20:13:23.127Z,61.69
2019-05-26T20:18:19.889Z,62.17
2019-05-26T20:23:16.559Z,60.74
2019-05-26T20:28:15.322Z,62.14
2019-05-26T20:33:12.292Z,61.30
2019-05-26T20:38:10.934Z,61.28
2019-05-26T20:43:08.109Z,62.30
2019-05-26T20:48:05.130Z,62.65
2019-05-26T20:53:03.474Z,62.07
2019-05-26T20:58:00.590Z,63.03
2019-05-26T21:02:57.596Z,61.52
2019-05-26T21:07:54.738Z,62.34
2019-05-26T21:12:51.880Z,62.70
2019-05-26T21:17:49.061Z,63.04
2019-05-26T21:22:47.875Z,62.87
2019-05-26T21:27:44.871Z,63.44
2019-05-26T21:32:41.825Z,63.05
2019-05-26T21:37:38.909Z,63.23
2019-05-26T21:42:40.986Z,64.15
2019-05-26T21:47:38.875Z,63.77
2019-05-26T21:52:35.959Z,64.08
2019-05-26T21:57:33.488Z,63.23
2019-05-26T22:02:30.533Z,64.47
2019-05-26T22:07:28.105Z,64.54
2019-05-26T22:12:25.159Z,64.65
2019-05-26T22:17:22.201Z,64.30
2019-05-26T22:22:19.721Z,65.07
2019-05-26T22:27:17.840Z,65.14
2019-05-26T22:32:14.896Z,64.17
2019-05-26T22:37:16.559Z,65.12
2019-05-26T22:42:13.558Z,65.53
2019-05-26T22:47:10.544Z,65.43
2019-05-26T22:52:10.168Z,64.79
2019-05-26T22:57:09.166Z,65.02
2019-05-26T23:02:06.265Z,64.47
2019-05-26T23:07:04.716Z,65.59
2019-05-26T23:12:01.718Z,64.47
2019-05-26T23:16:59.115Z,64.18
2019-05-26T23:21:56.175Z,65.05
2019-05-26T23:26:53.158Z,65.06
2019-05-26T23:31:52.705Z,64.59
2019-05-26T23:36:49.858Z,65.05
2019-05-26T23:41:46.847Z,65.71
2019-05-26T23:46:43.835Z,64.90
2019-05-26T23:51:40.889Z,64.79
2019-05-26T23:56:38.883Z,64.77
